Time;durP1;ratioP1;P1;durP2;ratioP2;P2;SDS_P1;SDS_P2;PMS_P1;PMS_P2;Temp;Humidity;BMP_temperature;BMP_pressure;BME280_temperature;BME280_humidity;BME280_pressure;Samples;Min_cycle;Max_cycle;Signal;HPM_P1;HPM_P2
2023/01/23 00:00:38;;;;;;;8.63;3.33;;;;;;;8.64;69.74;94318.44;5004224;28;20046;-79
2023/01/23 00:03:03;;;;;;;6.90;3.33;;;;;;;8.65;69.91;94325.34;5004277;28;20036;-79
2023/01/23 00:05:28;;;;;;;6.90;3.22;;;;;;;8.68;69.97;94324.75;5003609;28;20026;-79
2023/01/23 00:07:54;;;;;;;4.95;2.75;;;;;;;8.69;69.85;94321.03;5004025;28;20026;-79
2023/01/23 00:10:19;;;;;;;7.78;3.55;;;;;;;8.76;69.85;94325.97;5002744;28;20343;-79
2023/01/23 00:12:47;;;;;;;5.75;3.38;;;;;;;8.74;69.75;94325.47;5003903;28;20238;-79
2023/01/23 00:15:14;;;;;;;10.93;3.65;;;;;;;8.80;69.73;94321.66;5003753;28;20022;-79
2023/01/23 00:17:40;;;;;;;6.45;2.95;;;;;;;8.79;69.70;94318.22;5003943;28;20061;-79
2023/01/23 00:20:08;;;;;;;6.68;3.42;;;;;;;8.79;69.98;94320.88;5003867;28;20022;-79
2023/01/23 00:22:33;;;;;;;8.50;3.55;;;;;;;8.75;70.17;94314.56;5003675;28;20048;-79
2023/01/23 00:24:59;;;;;;;6.90;3.47;;;;;;;8.77;70.51;94316.91;5003772;28;20088;-79
2023/01/23 00:27:24;;;;;;;7.93;3.58;;;;;;;8.76;70.74;94318.00;5004044;28;20220;-79
2023/01/23 00:29:53;;;;;;;6.20;3.78;;;;;;;8.76;70.95;94315.34;5003686;28;20256;-79
2023/01/23 00:32:19;;;;;;;6.25;3.20;;;;;;;8.74;70.98;94314.84;5003716;28;20028;-79
2023/01/23 00:34:45;;;;;;;7.22;4.03;;;;;;;8.67;71.13;94311.75;5003794;28;20018;-79
2023/01/23 00:37:10;;;;;;;6.07;3.33;;;;;;;8.66;71.11;94320.81;5002472;28;20049;-79
2023/01/23 00:39:36;;;;;;;8.02;3.03;;;;;;;8.57;70.91;94313.50;5003720;28;20014;-78
2023/01/23 00:42:01;;;;;;;6.25;3.25;;;;;;;8.58;70.71;94315.06;5003406;28;20018;-79
2023/01/23 00:44:27;;;;;;;6.47;3.58;;;;;;;8.53;70.85;94325.78;5003717;28;20407;-78
2023/01/23 00:46:52;;;;;;;6.68;2.97;;;;;;;8.50;70.68;94334.31;5003852;28;20105;-78
2023/01/23 00:49:18;;;;;;;11.50;3.58;;;;;;;8.52;70.45;94336.69;5003530;28;20018;-79
2023/01/23 00:51:44;;;;;;;10.02;3.05;;;;;;;8.48;70.57;94331.16;5003265;28;20268;-79
2023/01/23 00:54:10;;;;;;;5.88;2.83;;;;;;;8.47;70.82;94326.94;5003735;28;20097;-78
2023/01/23 00:56:35;;;;;;;7.80;3.22;;;;;;;8.43;70.80;94326.69;5002391;28;20026;-79
2023/01/23 00:59:01;;;;;;;5.68;3.10;;;;;;;8.42;70.71;94322.44;5003500;28;20068;-79
2023/01/23 01:01:27;;;;;;;7.82;3.08;;;;;;;8.38;70.79;94326.72;5003387;28;20040;-79
2023/01/23 01:03:53;;;;;;;6.90;2.60;;;;;;;8.35;70.85;94332.63;5003601;28;20097;-79
2023/01/23 01:06:18;;;;;;;5.40;3.15;;;;;;;8.29;70.99;94325.81;5003401;28;20224;-79
2023/01/23 01:08:44;;;;;;;8.07;2.33;;;;;;;8.31;71.08;94328.19;5003300;28;20305;-79
2023/01/23 01:11:09;;;;;;;5.32;2.85;;;;;;;8.26;70.94;94334.34;5003317;28;20036;-78
2023/01/23 01:13:35;;;;;;;3.88;2.53;;;;;;;8.23;70.78;94338.34;5003191;28;20028;-79
2023/01/23 01:16:01;;;;;;;4.70;2.45;;;;;;;8.16;71.14;94329.16;5003405;28;20019;-79
2023/01/23 01:18:28;;;;;;;6.25;2.60;;;;;;;8.15;71.46;94330.25;5006802;28;20212;-79
2023/01/23 01:20:54;;;;;;;10.57;2.70;;;;;;;8.12;71.96;94339.59;5006982;28;20026;-79
2023/01/23 01:23:19;;;;;;;7.13;2.53;;;;;;;8.11;72.30;94342.50;5006958;28;20018;-79
2023/01/23 01:25:45;;;;;;;6.85;2.50;;;;;;;8.12;72.25;94363.47;5007026;28;20080;-79
2023/01/23 01:28:11;;;;;;;5.43;2.60;;;;;;;8.10;72.36;94357.66;5006707;28;20030;-79
2023/01/23 01:30:36;;;;;;;6.45;2.88;;;;;;;8.11;72.32;94356.56;5006646;28;20065;-78
2023/01/23 01:33:02;;;;;;;4.75;2.72;;;;;;;8.15;71.99;94354.94;5006691;28;20228;-78
2023/01/23 01:35:28;;;;;;;4.57;2.53;;;;;;;8.17;72.02;94360.75;5006658;28;20376;-78
2023/01/23 01:37:53;;;;;;;8.98;2.42;;;;;;;8.21;72.06;94368.94;5006569;28;20071;-78
2023/01/23 01:40:25;;;;;;;7.75;2.65;;;;;;;8.26;71.91;94360.88;5006479;28;20025;-78
2023/01/23 01:42:57;;;;;;;4.28;2.45;;;;;;;8.29;71.76;94362.22;5005445;28;20060;-78
2023/01/23 01:46:03;;;;;;;8.00;3.22;;;;;;;8.37;71.69;94369.53;5006883;28;20202;-78
2023/01/23 01:48:35;;;;;;;6.80;2.63;;;;;;;8.40;70.78;94366.28;5006437;28;20249;-79
2023/01/23 01:51:06;;;;;;;7.80;2.80;;;;;;;8.39;70.86;94368.16;5006632;28;20026;-78
2023/01/23 01:53:33;;;;;;;5.00;2.95;;;;;;;8.43;71.04;94360.44;5006245;28;20311;-78
2023/01/23 01:55:59;;;;;;;7.22;3.05;;;;;;;8.47;71.49;94361.47;5006507;28;20275;-78
2023/01/23 01:58:26;;;;;;;4.60;2.58;;;;;;;8.49;71.62;94367.28;5006632;28;20030;-79
2023/01/23 02:00:52;;;;;;;7.88;3.30;;;;;;;8.52;71.80;94363.25;5006788;28;20032;-78
2023/01/23 02:03:18;;;;;;;6.78;2.80;;;;;;;8.55;71.72;94366.13;5006221;28;20085;-78
2023/01/23 02:05:47;;;;;;;5.57;2.67;;;;;;;8.52;71.99;94368.56;5006362;28;20022;-78
2023/01/23 02:08:26;;;;;;;7.32;3.95;;;;;;;8.49;72.26;94369.94;5005925;28;20031;-78
2023/01/23 02:10:52;;;;;;;6.80;3.38;;;;;;;8.53;72.22;94368.28;5004878;28;20038;-78
2023/01/23 02:13:34;;;;;;;4.90;2.88;;;;;;;8.53;72.78;94373.59;5006118;28;20054;-78
2023/01/23 02:16:03;;;;;;;6.60;2.97;;;;;;;8.54;72.90;94385.00;5005910;28;20030;-78
2023/01/23 02:18:31;;;;;;;5.18;2.97;;;;;;;8.55;72.77;94379.41;5005841;28;20026;-78
2023/01/23 02:21:00;;;;;;;8.52;3.05;;;;;;;8.53;73.04;94376.25;5006084;28;20068;-78
2023/01/23 02:23:34;;;;;;;5.72;2.88;;;;;;;8.53;72.89;94380.75;5005884;28;20026;-78
2023/01/23 02:26:04;;;;;;;7.82;3.72;;;;;;;8.51;73.22;94378.41;5005669;28;20026;-78
2023/01/23 02:28:39;;;;;;;10.38;3.15;;;;;;;8.54;73.23;94377.81;5005657;28;20040;-78
2023/01/23 02:31:06;;;;;;;9.60;3.70;;;;;;;8.54;73.42;94372.50;5006012;28;20312;-78
2023/01/23 02:33:31;;;;;;;6.70;3.80;;;;;;;8.57;73.41;94376.47;5005808;28;20068;-78
2023/01/23 02:36:04;;;;;;;7.85;3.90;;;;;;;8.55;73.75;94371.44;5006036;28;20030;-78
2023/01/23 02:38:36;;;;;;;8.13;3.67;;;;;;;8.50;73.96;94376.03;5005700;28;20037;-78
2023/01/23 02:41:06;;;;;;;8.20;3.50;;;;;;;8.42;74.09;94366.81;5005740;28;20094;-78
2023/01/23 02:43:37;;;;;;;8.60;4.15;;;;;;;8.40;74.57;94376.91;5005430;28;20072;-78
2023/01/23 02:46:08;;;;;;;7.15;3.40;;;;;;;8.40;74.67;94371.59;5005456;28;20045;-78
2023/01/23 02:48:35;;;;;;;6.50;3.53;;;;;;;8.32;74.52;94370.38;5005292;28;20033;-78
2023/01/23 02:51:01;;;;;;;5.55;2.95;;;;;;;8.26;74.23;94379.47;5005183;28;20224;-78
2023/01/23 02:53:26;;;;;;;7.72;3.33;;;;;;;8.15;74.73;94373.50;5005009;28;20216;-78
2023/01/23 02:55:52;;;;;;;5.68;2.78;;;;;;;8.07;75.22;94371.50;5005382;28;20022;-78
2023/01/23 03:01:03;;;;;;;5.82;2.53;;;;;;;7.99;75.68;94366.81;5005200;28;20060;-77
2023/01/23 03:03:29;;;;;;;9.68;3.00;;;;;;;7.93;76.22;94374.03;5005019;28;20030;-77
2023/01/23 03:05:56;;;;;;;4.22;2.60;;;;;;;7.95;76.49;94377.19;5005148;28;20034;-78
2023/01/23 03:08:22;;;;;;;5.88;3.05;;;;;;;7.92;76.63;94379.66;5005152;28;20034;-78
2023/01/23 03:10:47;;;;;;;4.97;2.53;;;;;;;7.90;76.96;94379.16;5004956;28;20271;-78
2023/01/23 03:13:13;;;;;;;6.45;2.53;;;;;;;7.90;76.85;94373.84;5005051;28;20089;-78
2023/01/23 03:15:40;;;;;;;4.18;2.45;;;;;;;7.89;77.01;94378.34;5004930;28;20030;-78
2023/01/23 03:18:07;;;;;;;5.18;2.78;;;;;;;7.90;76.68;94377.28;5004665;28;20213;-78
2023/01/23 03:20:40;;;;;;;5.35;2.63;;;;;;;7.86;76.88;94384.22;5004751;28;20098;-78
2023/01/23 03:23:06;;;;;;;4.57;2.72;;;;;;;7.82;76.73;94372.59;5004603;28;20336;-78
2023/01/23 03:25:32;;;;;;;4.93;2.20;;;;;;;7.80;76.59;94364.13;5004579;28;20049;-78
2023/01/23 03:27:57;;;;;;;6.32;2.13;;;;;;;7.77;76.45;94370.75;5004445;28;20027;-78
2023/01/23 03:30:24;;;;;;;5.05;2.45;;;;;;;7.72;76.28;94362.88;5004719;28;20026;-78
2023/01/23 03:32:50;;;;;;;4.72;2.25;;;;;;;7.74;76.52;94358.06;5004571;28;20018;-78
2023/01/23 03:35:18;;;;;;;5.57;3.03;;;;;;;7.73;76.76;94367.09;5004757;28;20026;-79
2023/01/23 03:37:45;;;;;;;4.38;2.20;;;;;;;7.80;76.54;94358.81;5004678;28;20030;-79
2023/01/23 03:43:02;;;;;;;5.63;2.38;;;;;;;7.74;76.33;94366.03;5004667;28;20032;-78
2023/01/23 03:45:28;;;;;;;4.22;1.92;;;;;;;7.76;76.45;94363.88;5004617;28;20372;-78
2023/01/23 03:47:53;;;;;;;4.20;2.45;;;;;;;7.71;76.49;94363.94;5004346;28;20026;-78
2023/01/23 03:50:19;;;;;;;5.65;2.85;;;;;;;7.75;76.56;94372.91;5004126;28;20133;-79
2023/01/23 03:52:44;;;;;;;5.38;2.30;;;;;;;7.74;76.77;94365.25;5004001;28;20022;-77
2023/01/23 03:55:09;;;;;;;7.95;3.08;;;;;;;7.71;76.67;94366.59;5004153;28;20213;-77
2023/01/23 03:57:35;;;;;;;4.65;2.70;;;;;;;7.76;76.87;94368.41;5004431;28;20045;-78
2023/01/23 04:00:00;;;;;;;8.32;2.88;;;;;;;7.73;76.82;94372.41;5004673;28;20022;-78
2023/01/23 04:02:26;;;;;;;7.22;3.60;;;;;;;7.75;77.43;94372.13;5004246;28;20069;-77
2023/01/23 04:04:52;;;;;;;5.80;3.25;;;;;;;7.77;77.54;94381.38;5004274;28;20026;-78
2023/01/23 04:07:17;;;;;;;6.22;3.47;;;;;;;7.70;77.54;94386.25;5003955;28;20022;-78
2023/01/23 04:09:43;;;;;;;9.43;3.70;;;;;;;7.70;77.78;94398.72;5003730;28;20038;-78
2023/01/23 04:12:08;;;;;;;7.50;3.75;;;;;;;7.66;78.10;94385.22;5003763;28;20033;-78
2023/01/23 04:14:36;;;;;;;7.70;4.00;;;;;;;7.69;77.81;94384.66;5003950;28;20029;-78
2023/01/23 04:17:05;;;;;;;7.03;3.35;;;;;;;7.67;78.26;94389.44;5004115;28;20026;-78
2023/01/23 04:19:31;;;;;;;8.40;4.13;;;;;;;7.62;78.54;94384.22;5003907;28;20026;-78
2023/01/23 04:21:57;;;;;;;8.18;3.92;;;;;;;7.61;78.51;94382.59;5003601;28;20350;-77
2023/01/23 04:24:22;;;;;;;7.97;3.78;;;;;;;7.59;78.59;94395.38;5002838;28;20185;-78
2023/01/23 04:26:47;;;;;;;6.80;3.85;;;;;;;7.57;78.55;94379.75;5002769;28;20045;-77
2023/01/23 04:29:13;;;;;;;6.03;3.00;;;;;;;7.55;78.69;94394.34;5003637;28;20098;-77
2023/01/23 04:31:39;;;;;;;6.80;3.60;;;;;;;7.49;78.81;94390.97;5003718;28;20101;-77
2023/01/23 04:34:04;;;;;;;8.32;3.53;;;;;;;7.51;78.77;94398.63;5003747;28;20022;-77
2023/01/23 04:36:30;;;;;;;6.78;3.38;;;;;;;7.53;78.68;94396.50;5003561;28;20343;-77
2023/01/23 04:38:55;;;;;;;4.40;2.70;;;;;;;7.53;78.33;94397.28;5003723;28;20305;-77
2023/01/23 04:41:24;;;;;;;5.88;2.90;;;;;;;7.50;78.40;94391.75;5003701;28;20024;-77
2023/01/23 04:43:49;;;;;;;4.63;2.97;;;;;;;7.50;78.31;94395.19;5003756;28;20029;-77
2023/01/23 04:46:15;;;;;;;4.18;2.90;;;;;;;7.51;78.12;94395.97;5003534;28;20105;-77
2023/01/23 04:48:40;;;;;;;4.25;2.58;;;;;;;7.50;77.75;94389.09;5003468;28;20090;-78
2023/01/23 04:51:06;;;;;;;4.15;2.40;;;;;;;7.47;78.02;94382.50;5005334;28;20029;-78
2023/01/23 04:53:31;;;;;;;3.53;2.08;;;;;;;7.50;77.75;94391.75;5007376;28;20033;-77
2023/01/23 04:55:57;;;;;;;6.00;2.10;;;;;;;7.46;77.71;94390.72;5007467;28;20022;-77
2023/01/23 04:58:22;;;;;;;4.13;2.10;;;;;;;7.39;77.88;94385.78;5007517;28;20089;-77
2023/01/23 05:00:48;;;;;;;6.82;2.40;;;;;;;7.39;78.06;94399.81;5007184;28;20030;-78
2023/01/23 05:03:14;;;;;;;4.03;2.53;;;;;;;7.36;78.31;94400.34;5007287;28;20025;-78
2023/01/23 05:05:42;;;;;;;9.55;3.13;;;;;;;7.36;78.32;94395.03;5007346;28;20085;-78
2023/01/23 05:08:10;;;;;;;6.05;3.50;;;;;;;7.40;78.69;94396.06;5007289;28;20130;-78
2023/01/23 05:10:36;;;;;;;7.85;3.00;;;;;;;7.35;78.99;94398.78;5007259;28;20256;-78
2023/01/23 05:13:05;;;;;;;5.80;3.25;;;;;;;7.33;79.19;94402.78;5007050;28;20018;-78
2023/01/23 05:15:31;;;;;;;5.88;3.47;;;;;;;7.31;79.68;94395.09;5007200;28;20336;-78
2023/01/23 05:17:56;;;;;;;7.03;3.35;;;;;;;7.28;79.53;94403.59;5005699;28;20018;-78
2023/01/23 05:20:24;;;;;;;10.55;4.18;;;;;;;7.27;79.42;94410.00;5007050;28;20024;-78
2023/01/23 05:22:53;;;;;;;8.98;3.33;;;;;;;7.29;79.59;94399.91;5005777;28;20029;-78
2023/01/23 05:25:24;;;;;;;6.03;3.30;;;;;;;7.31;79.67;94400.41;5006495;28;20018;-78
2023/01/23 05:27:50;;;;;;;10.43;3.80;;;;;;;7.32;79.39;94394.03;5006773;28;20220;-78
2023/01/23 05:30:16;;;;;;;9.02;4.57;;;;;;;7.34;79.27;94407.00;5006689;28;20945;-78
2023/01/23 05:32:42;;;;;;;8.60;2.97;;;;;;;7.38;78.75;94408.03;5006692;28;20018;-78
2023/01/23 05:35:08;;;;;;;5.63;2.88;;;;;;;7.38;78.63;94411.47;5006930;28;20029;-78
2023/01/23 05:37:34;;;;;;;6.10;3.40;;;;;;;7.34;78.47;94420.28;5006411;28;20345;-77
2023/01/23 05:39:59;;;;;;;4.90;2.92;;;;;;;7.38;78.37;94424.72;5006488;28;20052;-77
2023/01/23 05:42:25;;;;;;;6.40;3.20;;;;;;;7.38;78.31;94432.69;5006695;28;20089;-77
2023/01/23 05:44:51;;;;;;;8.68;3.10;;;;;;;7.41;77.79;94432.16;5006481;28;20023;-76
2023/01/23 05:47:16;;;;;;;5.57;3.13;;;;;;;7.43;77.60;94442.47;5006353;28;20077;-76
2023/01/23 05:49:41;;;;;;;7.03;3.55;;;;;;;7.46;77.44;94449.88;5006253;28;20076;-79
2023/01/23 05:52:07;;;;;;;4.35;2.67;;;;;;;7.48;77.21;94452.25;5006509;28;20085;-77
2023/01/23 05:54:33;;;;;;;5.75;2.60;;;;;;;7.52;77.05;94453.28;5006630;28;20314;-77
2023/01/23 05:56:58;;;;;;;8.35;3.85;;;;;;;7.56;76.63;94451.66;5006347;28;20029;-77
2023/01/23 05:59:23;;;;;;;6.13;3.45;;;;;;;7.55;76.67;94468.63;5006265;28;20018;-77
2023/01/23 06:01:49;;;;;;;8.65;3.75;;;;;;;7.53;76.92;94460.16;5005833;28;20022;-77
2023/01/23 06:04:15;;;;;;;7.15;3.55;;;;;;;7.54;76.53;94467.06;5005637;28;20030;-77
2023/01/23 06:06:41;;;;;;;5.55;3.00;;;;;;;7.53;76.76;94457.50;5006036;28;20030;-77
2023/01/23 06:09:07;;;;;;;6.72;2.58;;;;;;;7.49;76.55;94480.34;5006027;28;20034;-77
2023/01/23 06:11:32;;;;;;;4.90;2.10;;;;;;;7.48;76.63;94476.13;5005903;28;20390;-77
2023/01/23 06:13:58;;;;;;;3.92;2.38;;;;;;;7.46;76.58;94480.91;5005913;28;20216;-77
2023/01/23 06:16:23;;;;;;;4.78;2.40;;;;;;;7.44;76.56;94479.31;5006016;28;20026;-77
2023/01/23 06:18:49;;;;;;;4.85;2.50;;;;;;;7.47;76.02;94485.94;5005735;28;20033;-77
2023/01/23 06:21:17;;;;;;;4.32;2.00;;;;;;;7.49;75.74;94488.31;5005530;28;20026;-77
2023/01/23 06:23:43;;;;;;;4.80;2.55;;;;;;;7.49;75.72;94481.16;5004538;28;20367;-77
2023/01/23 06:26:08;;;;;;;3.22;1.70;;;;;;;7.49;75.54;94485.66;5005680;28;20085;-77
2023/01/23 06:28:34;;;;;;;3.17;1.67;;;;;;;7.55;75.24;94488.00;5005533;28;20030;-77
2023/01/23 06:31:01;;;;;;;5.68;1.98;;;;;;;7.49;75.12;94490.94;5004288;28;20026;-77
2023/01/23 06:33:26;;;;;;;3.17;1.90;;;;;;;7.56;75.20;94491.44;5004412;28;20221;-77
2023/01/23 06:35:57;;;;;;;5.70;2.08;;;;;;;7.52;75.28;94491.19;5005793;28;20046;-77
2023/01/23 06:38:23;;;;;;;3.03;1.77;;;;;;;7.54;75.07;94483.75;5004159;28;20034;-77
2023/01/23 06:40:48;;;;;;;6.63;2.65;;;;;;;7.56;75.34;94486.13;5005251;28;20110;-77
2023/01/23 06:43:13;;;;;;;11.07;2.88;;;;;;;7.53;75.70;94492.78;5005290;28;20069;-77
2023/01/23 06:45:43;;;;;;;7.80;3.80;;;;;;;7.53;76.06;94494.63;5005183;28;20030;-77
2023/01/23 06:48:08;;;;;;;10.65;3.35;;;;;;;7.54;75.73;94498.88;5005213;28;20046;-77
2023/01/23 06:50:34;;;;;;;4.85;3.13;;;;;;;7.53;76.00;94492.78;5005100;28;20022;-77
2023/01/23 06:52:59;;;;;;;12.23;3.45;;;;;;;7.43;76.51;94492.88;5005044;28;20090;-77
2023/01/23 06:55:24;;;;;;;4.88;2.85;;;;;;;7.42;76.43;94494.72;5005348;28;20029;-78
2023/01/23 06:57:50;;;;;;;5.72;2.75;;;;;;;7.42;76.66;94491.28;5005154;28;20045;-80
2023/01/23 07:00:16;;;;;;;6.20;3.40;;;;;;;7.41;76.83;94508.28;5003882;28;20030;-79
2023/01/23 07:02:41;;;;;;;14.18;4.13;;;;;;;7.39;77.35;94513.06;5005032;28;20025;-78
2023/01/23 07:05:07;;;;;;;6.07;3.90;;;;;;;7.34;77.76;94516.53;5005064;28;20014;-78
2023/01/23 07:07:32;;;;;;;8.88;4.90;;;;;;;7.32;78.31;94526.63;5004806;28;20025;-78
2023/01/23 07:09:58;;;;;;;8.10;4.40;;;;;;;7.35;78.42;94518.13;5003624;28;20022;-78
2023/01/23 07:12:23;;;;;;;8.07;4.63;;;;;;;7.31;78.98;94525.03;5005086;28;20089;-78
2023/01/23 07:14:49;;;;;;;9.45;5.25;;;;;;;7.32;79.27;94531.13;5004012;28;20301;-78
2023/01/23 07:17:14;;;;;;;7.40;4.28;;;;;;;7.31;79.28;94527.69;5004716;28;20026;-78
2023/01/23 07:19:39;;;;;;;9.07;5.47;;;;;;;7.32;79.41;94520.53;5004710;28;20049;-78
2023/01/23 07:22:05;;;;;;;10.55;5.53;;;;;;;7.28;79.65;94533.53;5004705;28;20050;-78
2023/01/23 07:24:31;;;;;;;15.35;7.15;;;;;;;7.25;79.79;94541.28;5004709;28;20029;-78
2023/01/23 07:26:57;;;;;;;14.38;7.30;;;;;;;7.23;79.78;94552.16;5004630;28;20030;-78
2023/01/23 07:29:22;;;;;;;13.85;7.13;;;;;;;7.21;79.82;94547.09;5004282;28;20031;-78
2023/01/23 07:31:48;;;;;;;12.68;7.55;;;;;;;7.14;80.53;94548.47;5004517;28;20042;-83
2023/01/23 07:34:14;;;;;;;14.13;7.55;;;;;;;7.16;82.16;94546.34;5003379;28;20309;-82
2023/01/23 07:36:39;;;;;;;14.70;7.43;;;;;;;7.14;82.41;94551.13;5004175;28;20042;-82
2023/01/23 07:39:05;;;;;;;19.08;8.85;;;;;;;7.16;82.31;94556.94;5004048;28;20360;-81
2023/01/23 07:41:30;;;;;;;15.20;8.38;;;;;;;7.15;82.70;94563.31;5003033;28;20026;-81
2023/01/23 07:43:55;;;;;;;12.57;6.57;;;;;;;7.09;81.89;94556.47;5004264;28;20098;-81
2023/01/23 07:46:24;;;;;;;15.05;6.95;;;;;;;7.08;82.23;94550.34;5003270;28;20022;-81
2023/01/23 07:48:50;;;;;;;13.20;6.43;;;;;;;7.18;82.47;94554.81;5003715;28;20258;-81
2023/01/23 07:51:15;;;;;;;12.10;5.95;;;;;;;7.18;81.35;94552.16;5004211;28;20061;-81
2023/01/23 07:53:41;;;;;;;14.55;6.45;;;;;;;7.21;80.81;94554.28;5004098;28;20308;-80
2023/01/23 07:56:07;;;;;;;12.77;5.32;;;;;;;7.24;79.85;94564.31;5004139;28;20052;-80
2023/01/23 07:58:32;;;;;;;8.85;4.95;;;;;;;7.20;78.38;94576.53;5004137;28;20018;-81
2023/01/23 08:00:58;;;;;;;11.40;5.40;;;;;;;7.18;78.23;94576.81;5004163;28;20029;-80
2023/01/23 08:03:27;;;;;;;10.25;5.45;;;;;;;7.20;78.34;94579.97;5004290;28;20371;-80
2023/01/23 08:05:53;;;;;;;9.88;5.18;;;;;;;7.21;77.57;94591.41;5004007;28;20022;-80
2023/01/23 08:08:18;;;;;;;12.65;4.70;;;;;;;7.18;77.41;94589.28;5003942;28;20085;-80
2023/01/23 08:10:44;;;;;;;11.25;5.05;;;;;;;7.18;77.18;94584.75;5003751;28;20030;-79
2023/01/23 08:16:27;;;;;;;11.80;4.65;;;;;;;7.10;76.94;94592.50;5001375;28;20347;-79
2023/01/23 08:18:53;;;;;;;13.75;6.55;;;;;;;7.09;77.05;94593.59;5003850;28;20034;-78
2023/01/23 08:21:18;;;;;;;13.25;5.18;;;;;;;7.09;76.93;94598.88;5003675;28;20073;-78
2023/01/23 08:23:45;;;;;;;10.13;4.93;;;;;;;7.06;77.16;94599.41;5003407;28;20030;-78
2023/01/23 08:26:13;;;;;;;10.88;4.85;;;;;;;6.99;77.11;94608.44;5003515;28;20037;-79
2023/01/23 08:28:39;;;;;;;10.00;4.93;;;;;;;7.02;77.33;94613.22;5003658;28;20261;-77
2023/01/23 08:31:08;;;;;;;9.38;4.82;;;;;;;7.05;77.63;94603.94;5003565;28;20022;-80
2023/01/23 08:33:34;;;;;;;8.52;4.30;;;;;;;7.10;77.63;94616.34;5003609;28;20022;-80
2023/01/23 08:36:00;;;;;;;11.60;5.57;;;;;;;7.11;77.26;94618.75;5003645;28;20098;-80
2023/01/23 08:38:26;;;;;;;11.32;4.22;;;;;;;7.12;77.18;94615.00;5003403;28;20145;-80
2023/01/23 08:40:54;;;;;;;10.07;4.47;;;;;;;7.17;77.40;94619.53;5003577;28;20064;-80
2023/01/23 08:43:20;;;;;;;9.25;4.57;;;;;;;7.18;77.12;94615.78;5002255;28;20049;-79
2023/01/23 08:45:51;;;;;;;9.95;3.83;;;;;;;7.18;76.89;94619.22;5003679;28;20022;-78
2023/01/23 08:48:18;;;;;;;6.68;3.78;;;;;;;7.13;76.51;94619.25;5002132;28;20097;-80
2023/01/23 08:50:44;;;;;;;8.10;4.38;;;;;;;7.17;76.67;94622.16;5002178;28;20384;-78
2023/01/23 08:53:10;;;;;;;11.98;5.30;;;;;;;7.19;76.40;94615.53;5003335;28;20037;-80
2023/01/23 08:55:37;;;;;;;7.60;3.95;;;;;;;7.21;76.28;94624.00;5003524;28;20024;-77
2023/01/23 08:58:03;;;;;;;9.27;4.60;;;;;;;7.30;76.02;94620.78;5003697;28;20334;-79
2023/01/23 09:00:29;;;;;;;7.20;3.67;;;;;;;7.26;75.83;94623.16;5003454;28;20030;-78
2023/01/23 09:02:55;;;;;;;7.43;4.05;;;;;;;7.23;75.80;94626.38;5003994;28;20026;-78
2023/01/23 09:05:20;;;;;;;8.15;3.90;;;;;;;7.22;75.62;94624.78;5004008;28;20051;-78
2023/01/23 09:07:46;;;;;;;7.50;3.90;;;;;;;7.21;75.44;94620.56;5003950;28;20022;-78
2023/01/23 09:10:12;;;;;;;11.60;4.18;;;;;;;7.25;75.36;94624.25;5004221;28;20076;-78
2023/01/23 09:12:38;;;;;;;8.95;3.60;;;;;;;7.29;74.96;94630.59;5003820;28;20022;-82
2023/01/23 09:15:04;;;;;;;8.23;3.65;;;;;;;7.24;74.52;94627.97;5003939;28;20038;-80
2023/01/23 09:17:29;;;;;;;6.65;3.20;;;;;;;7.24;74.74;94627.97;5003944;28;20022;-79
2023/01/23 09:19:55;;;;;;;6.35;3.47;;;;;;;7.28;74.69;94636.94;5003602;28;20229;-81
2023/01/23 09:22:20;;;;;;;7.65;4.30;;;;;;;7.33;74.75;94639.59;5003895;28;20058;-81
2023/01/23 09:24:45;;;;;;;6.45;3.67;;;;;;;7.30;74.41;94626.88;5003692;28;20029;-83
2023/01/23 09:27:11;;;;;;;8.50;4.55;;;;;;;7.23;74.06;94643.09;5003676;28;20030;-84
2023/01/23 09:29:36;;;;;;;8.27;4.07;;;;;;;7.20;74.34;94630.34;5002418;28;20317;-83
2023/01/23 09:32:05;;;;;;;9.02;4.13;;;;;;;7.22;74.06;94636.22;5003714;28;20022;-83
2023/01/23 09:34:30;;;;;;;7.78;4.10;;;;;;;7.20;74.53;94625.06;5003485;28;20022;-83
2023/01/23 09:36:56;;;;;;;8.18;4.60;;;;;;;7.27;74.55;94627.44;5003703;28;20046;-81
2023/01/23 09:39:21;;;;;;;7.93;4.43;;;;;;;7.27;73.99;94622.13;5007495;28;20049;-84
2023/01/23 09:41:48;;;;;;;9.82;4.10;;;;;;;7.26;73.48;94623.16;5007233;28;20316;-79
2023/01/23 09:44:22;;;;;;;13.38;4.63;;;;;;;7.25;74.08;94634.06;5006934;28;20026;-80
2023/01/23 09:46:56;;;;;;;11.20;4.90;;;;;;;7.20;74.16;94621.63;5006659;28;20080;-86
2023/01/23 09:50:01;;;;;;;11.20;5.60;;;;;;;7.14;74.68;94617.41;5007529;28;20022;-90
2023/01/23 09:52:32;;;;;;;11.07;5.07;;;;;;;7.18;74.99;94618.44;4973934;28;20213;-86
2023/01/23 09:55:16;;;;;;;12.60;5.60;;;;;;;7.22;74.64;94624.78;5006474;28;20049;-85
2023/01/23 09:57:54;;;;;;;17.13;7.35;;;;;;;7.15;74.76;94624.31;5006444;28;20072;-84
2023/01/23 10:00:35;;;;;;;8.55;5.05;;;;;;;7.17;74.65;94627.47;5006509;28;20033;-84
2023/01/23 10:03:09;;;;;;;10.45;5.50;;;;;;;7.10;74.80;94624.31;5006358;28;20026;-87
2023/01/23 10:06:00;;;;;;;10.23;5.30;;;;;;;6.97;75.17;94617.75;5006660;28;20022;-84
2023/01/23 10:08:44;;;;;;;10.17;5.03;;;;;;;6.94;75.48;94619.09;4983857;28;20038;-86
2023/01/23 10:11:26;;;;;;;9.05;5.32;;;;;;;6.95;75.21;94630.47;5006375;28;20082;-84
2023/01/23 10:13:57;;;;;;;12.95;5.47;;;;;;;6.91;75.37;94622.25;5006012;28;20320;-85
2023/01/23 10:16:51;;;;;;;9.32;5.15;;;;;;;6.92;75.31;94625.69;5006497;28;20202;-87
2023/01/23 10:19:30;;;;;;;12.88;6.53;;;;;;;6.88;75.55;94616.72;5005952;28;20049;-86
2023/01/23 10:22:13;;;;;;;12.68;5.05;;;;;;;6.86;75.61;94618.84;5006177;28;20350;-86
2023/01/23 10:24:48;;;;;;;13.00;7.00;;;;;;;6.88;75.48;94614.06;5006112;28;20024;-88
2023/01/23 10:27:32;;;;;;;13.38;6.55;;;;;;;6.91;75.45;94610.88;5004929;28;20018;-83
2023/01/23 10:30:13;;;;;;;9.02;5.50;;;;;;;6.99;75.26;94605.81;5005684;28;20022;-84
2023/01/23 10:32:48;;;;;;;10.02;5.35;;;;;;;7.03;74.93;94608.72;5006068;28;20030;-85
2023/01/23 10:35:34;;;;;;;12.05;5.72;;;;;;;7.05;75.05;94613.75;5006286;28;20026;-86
2023/01/23 10:38:29;;;;;;;11.60;6.25;;;;;;;7.05;75.05;94616.41;5005659;28;20290;-85
2023/01/23 10:41:13;;;;;;;9.07;5.50;;;;;;;7.00;75.08;94612.69;4980847;28;20031;-86
2023/01/23 10:43:44;;;;;;;10.40;5.65;;;;;;;6.94;75.28;94605.84;5006124;28;20233;-87
2023/01/23 10:46:27;;;;;;;13.77;7.20;;;;;;;6.93;75.83;94612.19;5005694;28;20026;-85
2023/01/23 10:48:53;;;;;;;12.55;6.68;;;;;;;6.95;75.76;94609.28;5003949;28;20038;-85
2023/01/23 10:51:37;;;;;;;13.15;6.40;;;;;;;6.96;75.59;94609.00;5005227;28;20400;-84
2023/01/23 10:54:05;;;;;;;13.35;6.65;;;;;;;6.98;75.54;94614.84;5005254;28;20030;-85
2023/01/23 10:56:32;;;;;;;10.65;5.22;;;;;;;7.06;75.34;94610.00;5004773;28;20030;-88
2023/01/23 10:59:04;;;;;;;15.88;6.32;;;;;;;7.06;75.20;94617.97;5005763;28;20112;-88
2023/01/23 11:01:34;;;;;;;11.25;6.68;;;;;;;7.03;74.96;94611.34;5005471;28;20084;-84
2023/01/23 11:04:10;;;;;;;12.80;6.95;;;;;;;7.05;75.07;94619.84;5005148;28;20263;-84
2023/01/23 11:06:35;;;;;;;12.90;6.18;;;;;;;7.08;74.97;94608.66;5005273;28;20018;-85
2023/01/23 11:09:01;;;;;;;11.55;6.30;;;;;;;7.12;74.99;94620.31;5005051;28;20022;-84
2023/01/23 11:11:31;;;;;;;15.98;7.10;;;;;;;7.15;75.21;94624.31;5004746;28;20022;-84
2023/01/23 11:14:15;;;;;;;12.82;7.82;;;;;;;7.15;74.78;94613.69;5004702;28;20026;-83
2023/01/23 11:16:41;;;;;;;12.75;5.93;;;;;;;7.20;74.18;94613.66;5004839;28;20022;-84
2023/01/23 11:19:07;;;;;;;14.88;8.98;;;;;;;7.24;74.30;94622.66;5004690;28;20018;-80
2023/01/23 11:21:49;;;;;;;11.30;6.95;;;;;;;7.29;74.12;94620.00;5004734;28;20060;-81
2023/01/23 11:24:23;;;;;;;15.82;7.57;;;;;;;7.30;74.40;94618.91;5004677;28;20033;-80
2023/01/23 11:27:01;;;;;;;13.45;6.65;;;;;;;7.25;74.09;94624.25;5004412;28;20331;-81
2023/01/23 11:29:29;;;;;;;15.82;5.63;;;;;;;7.22;74.20;94617.66;5004265;28;20317;-81
2023/01/23 11:32:05;;;;;;;21.67;6.75;;;;;;;7.20;74.80;94624.25;5004902;28;20097;-80
2023/01/23 11:34:41;;;;;;;13.35;6.75;;;;;;;7.22;74.97;94616.84;5004543;28;20024;-80
2023/01/23 11:37:35;;;;;;;12.00;6.90;;;;;;;7.21;75.14;94615.25;5004889;28;20042;-80
2023/01/23 11:40:03;;;;;;;11.38;6.25;;;;;;;7.23;74.91;94610.47;5004805;28;20267;-80
2023/01/23 11:42:29;;;;;;;10.63;5.55;;;;;;;7.21;74.85;94613.41;5004010;28;20034;-80
2023/01/23 11:44:58;;;;;;;13.18;6.75;;;;;;;7.23;74.90;94610.47;5003920;28;20331;-81
2023/01/23 11:47:57;;;;;;;16.55;6.95;;;;;;;7.26;75.07;94620.53;5004457;28;20075;-80
2023/01/23 11:50:59;;;;;;;13.85;7.38;;;;;;;7.31;75.36;94614.41;5004536;28;20304;-80
2023/01/23 11:53:42;;;;;;;11.45;6.10;;;;;;;7.29;75.31;94617.34;4985514;28;20038;-79